Terminal Aerodrome Forecast
Issued by NWS Dallas/Fort Worth, TX

Home | Current Version | Previous Version | Text Only | Print | Product List | Glossary On
Versions: 1 2 3 4 5 6 7 8 9 10 11 12 13 14 15 16 17 18 19 20 21 22 23 24 25 26 27 28 29 30 31 32
467
FTUS44 KFWD 232108 AAB
TAFDFW
TAF AMD
KDFW 232108Z 2321/2424 01004KT 2SM BR OVC004
     FM232200 03005KT 2SM BR VCSH OVC004
     FM240200 03005KT 2SM -DZ OVC004
     FM240800 05005KT 2SM BR VCSH OVC004
      TEMPO 2415/2417 1SM TSRA OVC004CB
     FM241700 27010KT P6SM BKN007=

USA.gov is the U.S. government's official web portal to all federal, state and local government web resources and services.